For water level readings from Victoria harbour, visit our Tides page.

DISCLAIMER: Although GVHA takes care to produce accurate readings from Ogden Point, the weather information on this site is raw data fed directly from sensors. It does not go through the same quality control processes used by professional weather services, and should not be relied on as a sole source of weather information for Victoria harbour.

In-depth weather values from Victoria Harbour can be found on the Environment Canada website.

Location: Ogden Point Breakwater

Current time: Apr 25, 2019 6:40 AM GMT | Apr 24, 2019 11:40 PM

Last Hour Last 3 Hours Last 6 Hours Last 12 Hours
Time Peak Wind Speed Avg Speed Avg Direction Avg Air Temp Avg Dew Point Avg Humidity
Apr 24, 2019 11:40 PM 5.3 knots 4.7 knots 353° True 8.5° C / 47° F 3.8° C / 37.6° F 72.3%
Apr 24, 2019 11:30 PM 5 knots 4.3 knots 353° True 8.6° C / 47.2° F 4° C / 38° F 72.7%
Apr 24, 2019 11:20 PM 5.2 knots 4.5 knots 348° True 8.6° C / 47.2° F 3.9° C / 37.8° F 71.8%
Apr 24, 2019 11:10 PM 5.1 knots 4.1 knots 349° True 8.7° C / 47.4° F 4.1° C / 38.2° F 72.4%
Apr 24, 2019 11:00 PM 4.4 knots 3.9 knots 351° True 8.9° C / 47.8° F 4.2° C / 38.4° F 72.2%
Apr 24, 2019 10:50 PM 5.5 knots 4.5 knots 358° True 9.1° C / 48.2° F 4.1° C / 38.2° F 71%
Apr 24, 2019 10:40 PM 5.1 knots 4.4 knots 5° True 9.1° C / 48.2° F 4.4° C / 38.8° F 72.6%
Apr 24, 2019 10:30 PM 6.5 knots 5.2 knots 280° True 9° C / 48° F 5° C / 40° F 76.1%
Apr 24, 2019 10:20 PM 7.4 knots 6.6 knots 256° True 9° C / 48° F 5.2° C / 40.4° F 77.1%
Apr 24, 2019 10:10 PM 9.9 knots 8.1 knots 255° True 9.1° C / 48.2° F 4.6° C / 39.2° F 73%
Apr 24, 2019 10:00 PM 10.3 knots 9.5 knots 245° True 9.4° C / 48.8° F 3.7° C / 37.4° F 67.6%
Apr 24, 2019 09:50 PM 8.6 knots 7.4 knots 254° True 9.4° C / 48.8° F 4.7° C / 39.4° F 72.4%
Apr 24, 2019 09:40 PM 6.4 knots 5.2 knots 250° True 9.5° C / 49° F 5.5° C / 41° F 76.2%
Apr 24, 2019 09:30 PM 5.3 knots 4.6 knots 221° True 9.7° C / 49.4° F 4.7° C / 39.4° F 71%
Apr 24, 2019 09:20 PM 5.3 knots 4.1 knots 208° True 9.8° C / 49.6° F 4.2° C / 38.4° F 68.1%
Apr 24, 2019 09:10 PM 5.5 knots 2.3 knots 218° True 10.2° C / 50.4° F 3.4° C / 36.8° F 62.9%
Apr 24, 2019 09:00 PM 1.8 knots 1.6 knots 270° True 10.6° C / 51.2° F 2.4° C / 34.8° F 56.8%
Apr 24, 2019 08:50 PM 1.8 knots 1.3 knots 269° True 10.7° C / 51.4° F 2.1° C / 34.2° F 55.1%
Apr 24, 2019 08:40 PM 1.9 knots 1 knots 299° True 10.6° C / 51.2° F 2° C / 34° F 55.2%
Apr 24, 2019 08:30 PM 1.2 knots 0.7 knots 341° True 10.3° C / 50.6° F 2° C / 34° F 56.4%
Apr 24, 2019 08:20 PM 1.9 knots 1.4 knots 287° True 10.3° C / 50.6° F 1.9° C / 33.8° F 56.3%
Apr 24, 2019 08:10 PM 2.5 knots 2 knots 244° True 10.3° C / 50.6° F 3.3° C / 36.6° F 61.8%
Apr 24, 2019 08:00 PM 4.3 knots 3.3 knots 249° True 10.9° C / 51.8° F 1.4° C / 32.8° F 52%
Apr 24, 2019 07:50 PM 4.3 knots 3.4 knots 232° True 10.8° C / 51.6° F 1.6° C / 33.2° F 52.9%
Apr 24, 2019 07:40 PM 2.9 knots 2.5 knots 226° True 10.7° C / 51.4° F 2.9° C / 35.8° F 58.3%
Apr 24, 2019 07:30 PM 3.4 knots 2.8 knots 215° True 10.6° C / 51.2° F 3.2° C / 36.4° F 59.8%
Apr 24, 2019 07:20 PM 3.6 knots 3.3 knots 203° True 10.6° C / 51.2° F 3.3° C / 36.6° F 60.4%
Apr 24, 2019 07:10 PM 3.2 knots 2.9 knots 220° True 10.5° C / 51° F 3.1° C / 36.2° F 60%
Apr 24, 2019 07:00 PM 3.9 knots 3.5 knots 220° True 10.2° C / 50.4° F 3.2° C / 36.4° F 61.8%
Apr 24, 2019 06:50 PM 4.4 knots 3.8 knots 229° True 10.2° C / 50.4° F 4.2° C / 38.4° F 66.1%
Apr 24, 2019 06:30 PM 3.1 knots 2.5 knots 214° True 10.2° C / 50.4° F 5.2° C / 40.4° F 71.1%
Apr 24, 2019 06:20 PM 3.8 knots 3.2 knots 219° True 10.2° C / 50.4° F 6° C / 42° F 74.9%
Apr 24, 2019 06:10 PM 3.8 knots 3.5 knots 222° True 10.3° C / 50.6° F 5.4° C / 40.8° F 71.6%
Apr 24, 2019 06:00 PM 4 knots 3.6 knots 199° True 10.2° C / 50.4° F 5.2° C / 40.4° F 71%
Apr 24, 2019 05:50 PM 3.6 knots 3.1 knots 170° True 10.1° C / 50.2° F 5.3° C / 40.6° F 72.3%
Apr 24, 2019 05:40 PM 3.2 knots 3 knots 156° True 10° C / 50° F 5.6° C / 41.2° F 74.2%
Apr 24, 2019 05:30 PM 4.2 knots 3.5 knots 151° True 9.9° C / 49.8° F 5.8° C / 41.6° F 75.5%
Apr 24, 2019 05:20 PM 4.6 knots 3.7 knots 139° True 9.9° C / 49.8° F 5.8° C / 41.6° F 75.3%
Apr 24, 2019 05:10 PM 4.1 knots 3.4 knots 137° True 10° C / 50° F 5.7° C / 41.4° F 74.5%
Apr 24, 2019 05:00 PM 3.5 knots 2.8 knots 130° True 10° C / 50° F 5.6° C / 41.2° F 74.3%
Apr 24, 2019 04:50 PM 3.7 knots 2.9 knots 126° True 9.9° C / 49.8° F 5.5° C / 41° F 74.4%
Apr 24, 2019 04:40 PM 3.9 knots 2.8 knots 129° True 9.8° C / 49.6° F 5.7° C / 41.4° F 75.6%
Apr 24, 2019 04:30 PM 4.3 knots 3.7 knots 130° True 9.7° C / 49.4° F 5.6° C / 41.2° F 75.7%
Apr 24, 2019 04:20 PM 4.4 knots 3.7 knots 124° True 9.6° C / 49.2° F 5.7° C / 41.4° F 76.5%
Apr 24, 2019 04:10 PM 4.4 knots 3.5 knots 119° True 9.6° C / 49.2° F 5.7° C / 41.4° F 76.9%
Apr 24, 2019 04:00 PM 5 knots 4.1 knots 114° True 9.5° C / 49° F 5.6° C / 41.2° F 76.6%
Apr 24, 2019 03:50 PM 5.6 knots 4.7 knots 112° True 9.5° C / 49° F 5.3° C / 40.6° F 75.3%
Apr 24, 2019 03:40 PM 5.7 knots 4.8 knots 111° True 9.4° C / 48.8° F 5.2° C / 40.4° F 75.1%
Apr 24, 2019 03:30 PM 5.7 knots 4.9 knots 109° True 9.4° C / 48.8° F 5.1° C / 40.2° F 74.4%
Apr 24, 2019 03:20 PM 5.6 knots 4.9 knots 112° True 9.4° C / 48.8° F 4.8° C / 39.6° F 72.8%
Apr 24, 2019 03:10 PM 5.9 knots 5.1 knots 112° True 9.3° C / 48.6° F 4.2° C / 38.4° F 70.3%
Apr 24, 2019 03:00 PM 7.2 knots 5.9 knots 110° True 9.3° C / 48.6° F 4° C / 38° F 69.7%
Apr 24, 2019 02:50 PM 8.4 knots 7.1 knots 112° True 9.3° C / 48.6° F 4.4° C / 38.8° F 71.5%
Apr 24, 2019 02:40 PM 8.5 knots 7.3 knots 114° True 9.3° C / 48.6° F 4.3° C / 38.6° F 71.2%
Apr 24, 2019 02:30 PM 8.4 knots 7.5 knots 113° True 9.2° C / 48.4° F 4.4° C / 38.8° F 71.7%
Apr 24, 2019 02:20 PM 8.4 knots 7.5 knots 108° True 9.2° C / 48.4° F 4.3° C / 38.6° F 71.3%
Apr 24, 2019 02:10 PM 8.3 knots 7 knots 110° True 9.2° C / 48.4° F 4.1° C / 38.2° F 70.5%
Apr 24, 2019 02:00 PM 7.6 knots 6.6 knots 108° True 9.1° C / 48.2° F 4.2° C / 38.4° F 71.4%
Apr 24, 2019 01:50 PM 7.5 knots 6.6 knots 109° True 9° C / 48° F 4° C / 38° F 70.7%
Apr 24, 2019 01:40 PM 7.5 knots 6.6 knots 111° True 9° C / 48° F 4.3° C / 38.6° F 72.7%
Apr 24, 2019 01:30 PM 7.1 knots 6.3 knots 116° True 8.9° C / 47.8° F 4.8° C / 39.6° F 75%
Apr 24, 2019 01:20 PM 7.7 knots 6.8 knots 114° True 8.9° C / 47.8° F 4.5° C / 39° F 73.6%
Apr 24, 2019 01:10 PM 7.5 knots 6.8 knots 116° True 8.9° C / 47.8° F 4.4° C / 38.8° F 73.1%
Apr 24, 2019 01:00 PM 7 knots 6 knots 121° True 8.9° C / 47.8° F 4.1° C / 38.2° F 71.8%
Apr 24, 2019 12:50 PM 7.3 knots 6.2 knots 124° True 9° C / 48° F 4.1° C / 38.2° F 71.6%
Apr 24, 2019 12:40 PM 6.5 knots 5.6 knots 127° True 9° C / 48° F 4.2° C / 38.4° F 72%
Apr 24, 2019 12:30 PM 6.5 knots 5.7 knots 128° True 9° C / 48° F 3.9° C / 37.8° F 70.6%
Apr 24, 2019 12:20 PM 6.2 knots 5.3 knots 126° True 8.9° C / 47.8° F 4° C / 38° F 71.1%
Apr 24, 2019 12:10 PM 6.8 knots 5.8 knots 122° True 8.9° C / 47.8° F 4.2° C / 38.4° F 72.1%
Apr 24, 2019 12:00 PM 5.9 knots 5.3 knots 121° True 9° C / 48° F 4.4° C / 38.8° F 73%
Apr 24, 2019 11:50 AM 5.6 knots 4.7 knots 120° True 9° C / 48° F 4.2° C / 38.4° F 71.6%